Time;durP1;ratioP1;P1;durP2;ratioP2;P2;SDS_P1;SDS_P2;PMS_P1;PMS_P2;Temp;Humidity;BMP_temperature;BMP_pressure;BME280_temperature;BME280_humidity;BME280_pressure;Samples;Min_cycle;Max_cycle;Signal;HPM_P1;HPM_P2
2022/03/24 00:00:31;;;;;;;;;;;13.90;70.30;;;;;;4317612;33;43289;-84
2022/03/24 00:02:58;;;;;;;;;;;13.90;71.10;;;;;;4330250;33;43191;-84
2022/03/24 00:05:25;;;;;;;;;;;13.90;71.00;;;;;;4330590;33;43427;-84
2022/03/24 00:07:52;;;;;;;;;;;13.80;69.10;;;;;;4330518;33;42363;-84
2022/03/24 00:10:19;;;;;;;;;;;13.80;69.20;;;;;;4330228;33;45083;-84
2022/03/24 00:12:46;;;;;;;;;;;13.80;71.40;;;;;;4317389;33;43804;-84
2022/03/24 00:15:14;;;;;;;;;;;13.80;71.20;;;;;;4330190;33;42348;-84
2022/03/24 00:17:41;;;;;;;;;;;13.80;72.10;;;;;;4330644;33;44247;-84
2022/03/24 00:20:09;;;;;;;;;;;13.80;70.90;;;;;;4316868;33;44834;-84
2022/03/24 00:22:36;;;;;;;;;;;13.70;71.20;;;;;;4317219;33;43470;-84
2022/03/24 00:25:03;;;;;;;;;;;13.70;71.90;;;;;;4317037;33;43599;-84
2022/03/24 00:27:30;;;;;;;;;;;13.70;71.60;;;;;;4317313;33;43014;-84
2022/03/24 00:29:58;;;;;;;;;;;13.70;72.30;;;;;;4330507;33;43273;-84
2022/03/24 00:32:25;;;;;;;;;;;13.60;72.60;;;;;;4330509;33;43921;-84
2022/03/24 00:34:52;;;;;;;;;;;13.60;72.60;;;;;;4317494;33;43222;-84
2022/03/24 00:37:19;;;;;;;;;;;13.60;72.80;;;;;;4330339;33;44058;-85
2022/03/24 00:39:48;;;;;;;;;;;13.60;73.30;;;;;;4330586;33;43979;-85
2022/03/24 00:42:15;;;;;;;;;;;13.60;73.60;;;;;;4330076;33;43876;-84
2022/03/24 00:44:42;;;;;;;;;;;13.60;73.30;;;;;;4330434;33;43860;-84
2022/03/24 00:47:10;;;;;;;;;;;13.60;73.20;;;;;;4317275;33;45854;-84
2022/03/24 00:49:38;;;;;;;;;;;13.60;73.20;;;;;;4317205;33;43240;-84
2022/03/24 00:52:05;;;;;;;;;;;13.60;73.60;;;;;;4317280;33;43866;-84
2022/03/24 00:54:32;;;;;;;;;;;13.60;73.40;;;;;;4317060;33;43328;-84
2022/03/24 00:57:01;;;;;;;;;;;13.60;73.40;;;;;;4329747;33;45382;-84
2022/03/24 00:59:28;;;;;;;;;;;13.60;73.60;;;;;;4316856;33;42919;-85
2022/03/24 01:01:56;;;;;;;;;;;13.50;73.40;;;;;;4317013;33;45719;-85
2022/03/24 01:04:23;;;;;;;;;;;13.50;73.50;;;;;;4330692;33;43937;-85
2022/03/24 01:06:50;;;;;;;;;;;13.50;73.70;;;;;;4319863;33;44134;-84
2022/03/24 01:09:17;;;;;;;;;;;13.50;73.80;;;;;;4332670;33;42638;-84
2022/03/24 01:11:44;;;;;;;;;;;13.50;73.40;;;;;;4332990;33;44291;-84
2022/03/24 01:14:13;;;;;;;;;;;13.50;73.70;;;;;;4319650;33;44184;-84
2022/03/24 01:16:40;;;;;;;;;;;13.50;73.80;;;;;;4319525;33;43253;-84
2022/03/24 01:19:07;;;;;;;;;;;13.40;72.20;;;;;;4332588;33;43411;-84
2022/03/24 01:21:36;;;;;;;;;;;13.40;72.90;;;;;;4332394;33;43424;-84
2022/03/24 01:24:03;;;;;;;;;;;13.40;73.50;;;;;;4332817;33;43501;-84
2022/03/24 01:26:30;;;;;;;;;;;13.30;73.20;;;;;;4319669;33;44718;-85
2022/03/24 01:28:58;;;;;;;;;;;13.30;73.80;;;;;;4332578;33;43284;-84
2022/03/24 01:31:25;;;;;;;;;;;13.30;73.80;;;;;;4332665;33;42668;-84
2022/03/24 01:33:52;;;;;;;;;;;13.30;73.20;;;;;;4319417;33;42271;-84
2022/03/24 01:36:20;;;;;;;;;;;13.30;72.50;;;;;;4319378;33;44729;-84
2022/03/24 01:38:47;;;;;;;;;;;13.20;72.10;;;;;;4332614;33;42617;-84
2022/03/24 01:41:14;;;;;;;;;;;13.00;72.40;;;;;;4332199;33;42783;-84
2022/03/24 01:43:42;;;;;;;;;;;13.00;72.10;;;;;;4319136;33;42693;-85
2022/03/24 01:46:09;;;;;;;;;;;12.90;73.30;;;;;;4332626;33;44753;-84
2022/03/24 01:48:36;;;;;;;;;;;13.00;74.70;;;;;;4332427;33;43318;-84
2022/03/24 01:51:03;;;;;;;;;;;13.00;74.70;;;;;;4332154;33;43838;-85
2022/03/24 01:53:30;;;;;;;;;;;13.00;74.80;;;;;;4332538;33;43971;-85
2022/03/24 01:55:57;;;;;;;;;;;13.00;74.70;;;;;;4332010;33;44022;-85
2022/03/24 01:58:25;;;;;;;;;;;13.00;74.20;;;;;;4318977;33;43505;-83
2022/03/24 02:00:52;;;;;;;;;;;13.00;74.60;;;;;;4319219;33;44120;-84
2022/03/24 02:03:20;;;;;;;;;;;12.90;74.00;;;;;;4331857;33;43999;-84
2022/03/24 02:05:48;;;;;;;;;;;12.90;74.60;;;;;;4319032;33;43817;-84
2022/03/24 02:08:15;;;;;;;;;;;13.00;74.90;;;;;;4332239;33;43489;-84
2022/03/24 02:10:42;;;;;;;;;;;12.90;74.70;;;;;;4331885;33;44165;-84
2022/03/24 02:13:09;;;;;;;;;;;12.90;74.70;;;;;;4318805;33;44208;-84
2022/03/24 02:15:36;;;;;;;;;;;12.80;73.20;;;;;;4332305;33;43069;-84
2022/03/24 02:18:03;;;;;;;;;;;12.80;73.90;;;;;;4330825;33;43314;-84
2022/03/24 02:20:33;;;;;;;;;;;12.80;74.40;;;;;;4332094;33;43043;-84
2022/03/24 02:23:01;;;;;;;;;;;12.70;74.30;;;;;;4318569;33;43092;-84
2022/03/24 02:25:32;;;;;;;;;;;12.70;74.50;;;;;;4331739;33;43938;-84
2022/03/24 02:28:01;;;;;;;;;;;12.70;73.70;;;;;;4318919;33;42939;-84
2022/03/24 02:30:29;;;;;;;;;;;12.70;74.10;;;;;;4331551;33;42625;-84
2022/03/24 02:32:56;;;;;;;;;;;12.70;74.90;;;;;;4318846;33;43199;-84
2022/03/24 02:35:23;;;;;;;;;;;12.70;74.70;;;;;;4318789;33;44213;-84
2022/03/24 02:37:51;;;;;;;;;;;12.70;75.10;;;;;;4332287;33;42939;-84
2022/03/24 02:40:19;;;;;;;;;;;12.70;74.90;;;;;;4318319;33;42833;-85
2022/03/24 02:42:47;;;;;;;;;;;12.60;74.90;;;;;;4331299;33;43611;-84
2022/03/24 02:45:14;;;;;;;;;;;12.70;75.30;;;;;;4331798;33;43890;-84
2022/03/24 02:47:41;;;;;;;;;;;12.70;75.00;;;;;;4318550;33;43370;-84
2022/03/24 02:50:09;;;;;;;;;;;12.60;74.10;;;;;;4317996;33;43494;-84
2022/03/24 02:52:37;;;;;;;;;;;12.50;74.50;;;;;;4331211;33;44026;-84
2022/03/24 02:55:04;;;;;;;;;;;12.50;75.40;;;;;;4331404;33;42750;-84
2022/03/24 02:57:32;;;;;;;;;;;12.50;75.10;;;;;;4330979;33;43864;-84
2022/03/24 02:59:59;;;;;;;;;;;12.50;74.80;;;;;;4318279;33;44277;-84
2022/03/24 03:02:26;;;;;;;;;;;12.40;75.30;;;;;;4331036;33;45088;-84
2022/03/24 03:04:56;;;;;;;;;;;12.40;75.60;;;;;;4331159;33;42898;-84
2022/03/24 03:07:23;;;;;;;;;;;12.30;76.60;;;;;;4330876;33;45818;-84
2022/03/24 03:09:50;;;;;;;;;;;12.30;75.30;;;;;;4318076;33;43262;-84
2022/03/24 03:12:17;;;;;;;;;;;12.30;75.40;;;;;;4318163;33;44318;-84
2022/03/24 03:14:46;;;;;;;;;;;12.30;75.00;;;;;;4317757;33;43025;-84
2022/03/24 03:17:15;;;;;;;;;;;12.20;75.80;;;;;;4318083;33;43389;-84
2022/03/24 03:19:43;;;;;;;;;;;12.20;76.00;;;;;;4318212;33;45389;-84
2022/03/24 03:22:10;;;;;;;;;;;12.20;76.30;;;;;;4317730;33;43069;-84
2022/03/24 03:24:39;;;;;;;;;;;12.20;76.60;;;;;;4317990;33;43075;-84
2022/03/24 03:27:07;;;;;;;;;;;12.20;76.70;;;;;;4331256;33;44006;-84
2022/03/24 03:29:34;;;;;;;;;;;12.20;75.90;;;;;;4317484;33;43299;-84
2022/03/24 03:32:02;;;;;;;;;;;12.20;75.70;;;;;;4331113;33;43967;-84
2022/03/24 03:34:29;;;;;;;;;;;12.10;76.30;;;;;;4317512;33;44243;-84
2022/03/24 03:36:57;;;;;;;;;;;12.20;77.00;;;;;;4317372;33;44939;-84
2022/03/24 03:39:25;;;;;;;;;;;12.20;76.50;;;;;;4330608;33;43536;-84
2022/03/24 03:41:52;;;;;;;;;;;12.20;76.60;;;;;;4332191;33;20041;-84
2022/03/24 03:44:19;;;;;;;;;;;12.20;76.80;;;;;;4317227;33;43422;-84
2022/03/24 03:46:47;;;;;;;;;;;12.10;76.60;;;;;;4318203;33;44026;-84
2022/03/24 03:49:14;;;;;;;;;;;12.10;76.40;;;;;;4330559;33;43642;-84
2022/03/24 03:51:41;;;;;;;;;;;12.10;76.60;;;;;;4317548;33;44590;-84
2022/03/24 03:54:09;;;;;;;;;;;12.00;76.90;;;;;;4330781;33;42648;-84
2022/03/24 03:56:36;;;;;;;;;;;12.10;77.50;;;;;;4330740;33;42149;-84
2022/03/24 03:59:07;;;;;;;;;;;12.10;76.60;;;;;;4317564;33;42760;-84
2022/03/24 04:01:34;;;;;;;;;;;12.10;78.30;;;;;;4317424;33;44055;-84
2022/03/24 04:04:02;;;;;;;;;;;12.00;76.50;;;;;;4330339;33;44282;-84
2022/03/24 04:06:29;;;;;;;;;;;12.00;77.10;;;;;;4317438;33;44107;-84
2022/03/24 04:08:56;;;;;;;;;;;12.00;77.50;;;;;;4330244;33;42631;-84
2022/03/24 04:11:23;;;;;;;;;;;12.00;77.60;;;;;;4330631;33;46070;-84
2022/03/24 04:13:50;;;;;;;;;;;12.00;77.20;;;;;;4317009;33;44055;-84
2022/03/24 04:16:17;;;;;;;;;;;12.00;77.60;;;;;;4330805;33;44310;-84
2022/03/24 04:18:49;;;;;;;;;;;12.00;77.40;;;;;;4316986;33;44024;-84
2022/03/24 04:21:17;;;;;;;;;;;12.00;77.50;;;;;;4317571;33;44295;-84
2022/03/24 04:23:45;;;;;;;;;;;12.00;77.50;;;;;;4330599;33;44191;-84
2022/03/24 04:26:12;;;;;;;;;;;12.00;78.00;;;;;;4316997;33;44226;-84
2022/03/24 04:28:40;;;;;;;;;;;12.00;76.50;;;;;;4330627;33;44214;-84
2022/03/24 04:31:07;;;;;;;;;;;11.90;75.50;;;;;;4330056;33;42797;-84
2022/03/24 04:33:34;;;;;;;;;;;11.80;76.90;;;;;;4330481;33;44254;-84
2022/03/24 04:36:02;;;;;;;;;;;11.80;76.70;;;;;;4316943;33;43068;-84
2022/03/24 04:38:29;;;;;;;;;;;11.80;76.30;;;;;;4330472;33;44223;-85
2022/03/24 04:40:56;;;;;;;;;;;11.70;77.40;;;;;;4319171;33;44170;-84
2022/03/24 04:43:24;;;;;;;;;;;11.80;77.40;;;;;;4333071;33;43774;-83
2022/03/24 04:45:51;;;;;;;;;;;11.80;76.50;;;;;;4334568;33;20072;-84
2022/03/24 04:48:19;;;;;;;;;;;11.70;76.60;;;;;;4333268;33;43303;-84
2022/03/24 04:50:46;;;;;;;;;;;11.70;76.20;;;;;;4319752;33;44178;-84
2022/03/24 04:53:15;;;;;;;;;;;11.70;77.40;;;;;;4320105;33;43275;-84
2022/03/24 04:55:43;;;;;;;;;;;11.70;76.90;;;;;;4332822;33;43953;-84
2022/03/24 04:58:10;;;;;;;;;;;11.70;77.40;;;;;;4332946;33;42676;-84
2022/03/24 05:00:38;;;;;;;;;;;11.70;77.00;;;;;;4320044;33;43036;-84
2022/03/24 05:03:05;;;;;;;;;;;11.60;77.20;;;;;;4319475;33;44049;-84
2022/03/24 05:05:32;;;;;;;;;;;11.60;77.00;;;;;;4333252;33;43865;-84
2022/03/24 05:07:59;;;;;;;;;;;11.60;77.90;;;;;;4319543;33;43206;-84
2022/03/24 05:10:27;;;;;;;;;;;11.60;78.10;;;;;;4332760;33;43442;-84
2022/03/24 05:12:54;;;;;;;;;;;11.60;78.20;;;;;;4332616;33;43912;-84
2022/03/24 05:15:22;;;;;;;;;;;11.70;78.30;;;;;;4332564;33;43904;-84
2022/03/24 05:17:50;;;;;;;;;;;11.60;78.20;;;;;;4332972;33;44001;-84
2022/03/24 05:20:17;;;;;;;;;;;11.70;78.40;;;;;;4319787;33;42511;-84
2022/03/24 05:22:44;;;;;;;;;;;11.70;78.00;;;;;;4332903;33;43891;-84
2022/03/24 05:25:11;;;;;;;;;;;11.70;78.00;;;;;;4332412;33;44542;-84
2022/03/24 05:27:39;;;;;;;;;;;11.60;78.20;;;;;;4332490;33;43921;-84
2022/03/24 05:30:06;;;;;;;;;;;11.70;78.40;;;;;;4332637;33;43794;-85
2022/03/24 05:32:34;;;;;;;;;;;11.60;78.50;;;;;;4319714;33;43895;-84
2022/03/24 05:35:01;;;;;;;;;;;11.70;78.30;;;;;;4332683;33;43851;-84
2022/03/24 05:37:28;;;;;;;;;;;11.60;77.70;;;;;;4332271;33;42657;-84
2022/03/24 05:39:55;;;;;;;;;;;11.60;77.20;;;;;;4319567;33;43156;-84
2022/03/24 05:42:22;;;;;;;;;;;11.60;78.30;;;;;;4319342;33;43911;-84
2022/03/24 05:44:49;;;;;;;;;;;11.60;78.40;;;;;;4319565;33;43253;-84
2022/03/24 05:47:17;;;;;;;;;;;11.60;78.70;;;;;;4332367;33;43433;-84
2022/03/24 05:49:44;;;;;;;;;;;11.50;78.30;;;;;;4319038;33;43876;-84
2022/03/24 05:52:11;;;;;;;;;;;11.50;78.20;;;;;;4332132;33;43121;-84
2022/03/24 05:54:38;;;;;;;;;;;11.50;78.60;;;;;;4319286;33;44025;-84
2022/03/24 05:57:05;;;;;;;;;;;11.50;78.60;;;;;;4332004;33;43303;-84
2022/03/24 05:59:32;;;;;;;;;;;11.50;78.30;;;;;;4318732;33;42605;-84
2022/03/24 06:02:00;;;;;;;;;;;11.50;78.80;;;;;;4332066;33;43203;-84
2022/03/24 06:04:29;;;;;;;;;;;11.40;78.90;;;;;;4331892;33;44274;-84
2022/03/24 06:06:57;;;;;;;;;;;11.40;78.80;;;;;;4331862;33;42744;-84
2022/03/24 06:09:24;;;;;;;;;;;11.40;78.70;;;;;;4318640;33;43734;-84
2022/03/24 06:11:52;;;;;;;;;;;11.40;79.40;;;;;;4332375;33;43182;-84
2022/03/24 06:14:20;;;;;;;;;;;11.40;79.20;;;;;;4319160;33;44725;-84
2022/03/24 06:16:48;;;;;;;;;;;11.40;79.30;;;;;;4319097;33;44208;-84
2022/03/24 06:19:15;;;;;;;;;;;11.40;79.60;;;;;;4331717;33;43078;-84
2022/03/24 06:21:42;;;;;;;;;;;11.30;78.80;;;;;;4318947;33;44764;-84
2022/03/24 06:24:09;;;;;;;;;;;11.20;79.30;;;;;;4319017;33;44413;-85
2022/03/24 06:26:37;;;;;;;;;;;11.20;79.20;;;;;;4318434;33;43355;-85
2022/03/24 06:29:05;;;;;;;;;;;11.20;79.70;;;;;;4318424;33;42643;-84
2022/03/24 06:31:32;;;;;;;;;;;11.20;79.90;;;;;;4318724;33;45724;-84
2022/03/24 06:33:59;;;;;;;;;;;11.20;79.90;;;;;;4318451;33;42802;-84
2022/03/24 06:36:26;;;;;;;;;;;11.20;80.10;;;;;;4331472;33;43139;-84
2022/03/24 06:38:55;;;;;;;;;;;11.20;79.90;;;;;;4318985;33;43912;-87
2022/03/24 06:41:23;;;;;;;;;;;11.20;80.30;;;;;;4331736;33;44047;-84
2022/03/24 06:43:50;;;;;;;;;;;11.20;80.40;;;;;;4318185;33;43990;-84
2022/03/24 06:46:17;;;;;;;;;;;11.20;80.50;;;;;;4331299;33;44278;-84
2022/03/24 06:48:44;;;;;;;;;;;11.20;79.60;;;;;;4318364;33;44088;-85
2022/03/24 06:51:11;;;;;;;;;;;11.10;79.90;;;;;;4331329;33;44181;-84
2022/03/24 06:53:38;;;;;;;;;;;11.10;79.70;;;;;;4318206;33;44270;-84
2022/03/24 06:56:06;;;;;;;;;;;11.10;79.80;;;;;;4317984;33;43829;-84
2022/03/24 06:58:33;;;;;;;;;;;11.00;80.50;;;;;;4318439;33;43509;-84
2022/03/24 07:01:01;;;;;;;;;;;11.00;80.80;;;;;;4331465;33;44634;-85
2022/03/24 07:03:28;;;;;;;;;;;11.10;80.80;;;;;;4317654;33;44243;-84
2022/03/24 07:05:55;;;;;;;;;;;11.00;80.60;;;;;;4331498;33;44279;-84
2022/03/24 07:08:26;;;;;;;;;;;11.00;81.30;;;;;;4317895;33;42856;-84
2022/03/24 07:10:53;;;;;;;;;;;11.00;81.60;;;;;;4331506;33;43174;-84
2022/03/24 07:13:20;;;;;;;;;;;11.00;82.20;;;;;;4331442;33;42568;-85
2022/03/24 07:15:47;;;;;;;;;;;11.00;82.50;;;;;;4331257;33;43046;-85
2022/03/24 07:18:15;;;;;;;;;;;11.00;83.30;;;;;;4318096;33;43960;-85
2022/03/24 07:20:42;;;;;;;;;;;11.00;83.40;;;;;;4331108;33;42658;-85
2022/03/24 07:23:09;;;;;;;;;;;11.00;84.00;;;;;;4317721;33;43316;-85
2022/03/24 07:25:37;;;;;;;;;;;11.10;84.40;;;;;;4331366;33;44197;-85
2022/03/24 07:28:05;;;;;;;;;;;11.10;84.80;;;;;;4331112;33;44004;-85
2022/03/24 07:30:32;;;;;;;;;;;11.10;85.10;;;;;;4330805;33;44814;-85
2022/03/24 07:32:59;;;;;;;;;;;11.10;85.60;;;;;;4317887;33;45136;-85
2022/03/24 07:35:31;;;;;;;;;;;11.10;86.00;;;;;;4330622;33;42251;-85
2022/03/24 07:37:59;;;;;;;;;;;11.10;86.70;;;;;;4317351;33;44643;-85
2022/03/24 07:40:26;;;;;;;;;;;11.10;87.30;;;;;;4317888;33;43524;-85
2022/03/24 07:42:54;;;;;;;;;;;11.20;87.60;;;;;;4330581;33;43848;-85
2022/03/24 07:45:22;;;;;;;;;;;11.20;86.60;;;;;;4317450;33;44122;-85
2022/03/24 07:48:08;;;;;;;;;;;11.20;86.30;;;;;;4317279;33;43877;-85
2022/03/24 07:50:36;;;;;;;;;;;11.20;86.10;;;;;;4330955;33;44260;-85
2022/03/24 07:53:23;;;;;;;;;;;11.30;85.90;;;;;;4330959;33;43272;-85
2022/03/24 07:55:50;;;;;;;;;;;11.30;86.00;;;;;;4295621;33;42586;-85
2022/03/24 07:58:18;;;;;;;;;;;11.30;85.70;;;;;;4317405;33;44240;-85
2022/03/24 08:00:45;;;;;;;;;;;11.30;86.50;;;;;;4317388;33;40934;-85
2022/03/24 08:03:21;;;;;;;;;;;11.40;86.30;;;;;;4330183;33;44299;-85
2022/03/24 08:05:49;;;;;;;;;;;11.40;86.40;;;;;;4317424;33;43569;-85
2022/03/24 08:08:16;;;;;;;;;;;11.40;86.20;;;;;;4330349;33;43309;-85
2022/03/24 08:10:45;;;;;;;;;;;11.40;86.50;;;;;;4317271;33;44364;-85
2022/03/24 08:13:13;;;;;;;;;;;11.50;86.40;;;;;;4317215;33;43507;-84
2022/03/24 08:15:41;;;;;;;;;;;11.50;86.10;;;;;;4330105;33;43971;-84
2022/03/24 08:18:08;;;;;;;;;;;11.60;86.30;;;;;;4316919;33;44074;-84
2022/03/24 08:20:36;;;;;;;;;;;11.60;85.90;;;;;;4330213;33;43530;-84
2022/03/24 08:23:08;;;;;;;;;;;11.60;85.60;;;;;;4317335;33;44169;-84
2022/03/24 08:25:36;;;;;;;;;;;11.60;85.70;;;;;;4330703;33;43238;-84
2022/03/24 08:28:03;;;;;;;;;;;11.60;85.80;;;;;;4317376;33;45957;-84
2022/03/24 08:30:31;;;;;;;;;;;11.70;85.90;;;;;;4317421;33;43917;-84
2022/03/24 08:32:58;;;;;;;;;;;11.70;85.90;;;;;;4316916;33;43079;-84
2022/03/24 08:35:25;;;;;;;;;;;11.70;85.90;;;;;;4316997;33;43866;-84
2022/03/24 08:37:53;;;;;;;;;;;11.80;85.80;;;;;;4330431;33;43348;-84
2022/03/24 08:40:20;;;;;;;;;;;11.80;85.70;;;;;;4330397;33;44206;-84
2022/03/24 08:42:47;;;;;;;;;;;11.80;85.50;;;;;;4330456;33;44796;-84
2022/03/24 08:45:15;;;;;;;;;;;11.80;85.10;;;;;;4330365;33;43874;-85
2022/03/24 08:47:42;;;;;;;;;;;11.80;85.00;;;;;;4330187;33;42566;-85
2022/03/24 08:50:10;;;;;;;;;;;11.80;84.50;;;;;;4316890;33;43477;-84
2022/03/24 08:52:38;;;;;;;;;;;11.90;83.80;;;;;;4316948;33;44160;-84
2022/03/24 08:55:06;;;;;;;;;;;11.90;84.10;;;;;;4330181;33;43574;-84
2022/03/24 08:57:34;;;;;;;;;;;11.90;84.50;;;;;;4316950;33;45707;-83
2022/03/24 09:00:07;;;;;;;;;;;11.90;84.30;;;;;;4330211;33;42994;-84
2022/03/24 09:02:35;;;;;;;;;;;11.90;84.10;;;;;;4329847;33;42865;-83
2022/03/24 09:05:03;;;;;;;;;;;11.90;84.00;;;;;;4316897;33;44271;-84
2022/03/24 09:07:35;;;;;;;;;;;12.00;84.50;;;;;;4317550;33;42501;-84
2022/03/24 09:10:06;;;;;;;;;;;12.00;84.60;;;;;;4317066;33;43391;-84
2022/03/24 09:12:35;;;;;;;;;;;12.00;84.40;;;;;;4317129;33;43982;-84
2022/03/24 09:15:05;;;;;;;;;;;12.00;84.10;;;;;;4317145;33;43217;-85
2022/03/24 09:17:32;;;;;;;;;;;12.00;83.60;;;;;;4317197;33;45325;-84
2022/03/24 09:20:00;;;;;;;;;;;12.00;83.60;;;;;;4330164;33;43200;-84
2022/03/24 09:22:27;;;;;;;;;;;12.00;83.80;;;;;;4316649;33;43266;-83
2022/03/24 09:24:54;;;;;;;;;;;12.10;84.00;;;;;;4330328;33;44218;-84
2022/03/24 09:27:21;;;;;;;;;;;12.10;84.30;;;;;;4318971;33;45866;-84
2022/03/24 09:29:52;;;;;;;;;;;12.10;83.60;;;;;;4319400;33;43233;-83
2022/03/24 09:32:19;;;;;;;;;;;12.10;84.00;;;;;;4332894;33;44055;-84
2022/03/24 09:34:46;;;;;;;;;;;12.10;83.90;;;;;;4319800;33;43998;-83
2022/03/24 09:37:17;;;;;;;;;;;12.20;83.70;;;;;;4332681;33;43984;-84
2022/03/24 09:39:44;;;;;;;;;;;12.20;83.60;;;;;;4319077;33;43479;-84
2022/03/24 09:42:12;;;;;;;;;;;12.20;84.20;;;;;;4319220;33;43596;-83
2022/03/24 09:44:40;;;;;;;;;;;12.20;83.70;;;;;;4319261;33;42616;-84
2022/03/24 09:47:12;;;;;;;;;;;12.20;83.60;;;;;;4319035;33;42710;-83
2022/03/24 09:49:40;;;;;;;;;;;12.20;84.20;;;;;;4332176;33;42672;-83
2022/03/24 09:52:11;;;;;;;;;;;12.20;83.60;;;;;;4332522;33;42724;-83
2022/03/24 09:54:39;;;;;;;;;;;12.20;83.20;;;;;;4332597;33;45062;-83
2022/03/24 09:57:07;;;;;;;;;;;12.20;82.90;;;;;;4332487;33;43918;-83
2022/03/24 09:59:34;;;;;;;;;;;12.30;83.20;;;;;;4318997;33;43262;-83
2022/03/24 10:02:02;;;;;;;;;;;12.30;82.90;;;;;;4316491;33;43279;-84
2022/03/24 10:04:45;;;;;;;;;;;12.30;83.50;;;;;;4317801;33;43908;-85
2022/03/24 10:07:18;;;;;;;;;;;12.30;83.60;;;;;;4317713;33;43250;-84
2022/03/24 10:09:47;;;;;;;;;;;12.30;83.60;;;;;;4316806;33;45219;-83
2022/03/24 10:12:18;;;;;;;;;;;12.30;82.80;;;;;;4316355;33;43986;-83
2022/03/24 10:14:55;;;;;;;;;;;12.30;83.20;;;;;;4317740;33;43516;-83
2022/03/24 10:17:22;;;;;;;;;;;12.40;83.30;;;;;;4316192;33;43313;-84
2022/03/24 10:19:57;;;;;;;;;;;12.40;83.30;;;;;;4317236;33;43076;-84
2022/03/24 10:22:24;;;;;;;;;;;12.40;83.20;;;;;;4316301;33;42940;-84
2022/03/24 10:24:52;;;;;;;;;;;12.40;82.80;;;;;;4317457;33;44350;-83
2022/03/24 10:27:20;;;;;;;;;;;12.40;82.50;;;;;;4317226;33;44503;-83
2022/03/24 10:29:54;;;;;;;;;;;12.40;83.20;;;;;;4317271;33;43939;-84
2022/03/24 10:32:22;;;;;;;;;;;12.40;83.60;;;;;;4316904;33;43476;-84
2022/03/24 10:34:50;;;;;;;;;;;12.50;84.00;;;;;;4316913;33;43869;-83
2022/03/24 10:37:19;;;;;;;;;;;12.50;83.60;;;;;;4315232;33;44218;-83
2022/03/24 10:39:54;;;;;;;;;;;12.50;83.40;;;;;;4316665;33;42307;-83
2022/03/24 10:42:24;;;;;;;;;;;12.50;82.90;;;;;;4317211;33;44191;-84
2022/03/24 10:45:09;;;;;;;;;;;12.50;83.00;;;;;;4315698;33;42978;-83
2022/03/24 10:47:37;;;;;;;;;;;12.50;82.70;;;;;;4315762;33;43005;-83
2022/03/24 10:50:24;;;;;;;;;;;12.60;82.70;;;;;;4316202;33;44248;-83
2022/03/24 10:52:53;;;;;;;;;;;12.60;82.80;;;;;;4315507;33;44193;-83
2022/03/24 10:55:35;;;;;;;;;;;12.60;82.90;;;;;;4316542;33;44043;-83
2022/03/24 10:58:07;;;;;;;;;;;12.60;82.80;;;;;;4315510;33;42813;-83
2022/03/24 11:00:35;;;;;;;;;;;12.60;83.20;;;;;;4317167;33;44223;-84
2022/03/24 11:03:02;;;;;;;;;;;12.70;83.90;;;;;;4326221;33;42998;-83
2022/03/24 11:05:29;;;;;;;;;;;12.70;83.30;;;;;;4331525;33;42593;-83
2022/03/24 11:07:56;;;;;;;;;;;12.70;83.20;;;;;;4331011;33;46016;-83
2022/03/24 11:10:24;;;;;;;;;;;12.70;83.20;;;;;;4331455;33;45539;-83
2022/03/24 11:12:57;;;;;;;;;;;12.70;82.90;;;;;;4331359;33;43100;-83
2022/03/24 11:15:25;;;;;;;;;;;12.80;83.10;;;;;;4331343;33;42632;-83
2022/03/24 11:17:52;;;;;;;;;;;12.80;82.50;;;;;;4331276;33;42759;-84
2022/03/24 11:20:25;;;;;;;;;;;12.80;82.70;;;;;;4318142;33;43948;-83
2022/03/24 11:22:55;;;;;;;;;;;12.80;82.80;;;;;;4318234;33;45692;-83
2022/03/24 11:25:23;;;;;;;;;;;12.90;83.00;;;;;;4331022;33;43770;-84
2022/03/24 11:27:51;;;;;;;;;;;12.90;83.00;;;;;;4331159;33;43489;-83
2022/03/24 11:30:21;;;;;;;;;;;12.90;83.10;;;;;;4318147;33;43262;-83
2022/03/24 11:32:55;;;;;;;;;;;12.90;82.00;;;;;;4330988;33;44375;-83
2022/03/24 11:35:22;;;;;;;;;;;12.90;81.70;;;;;;4317925;33;43525;-83
2022/03/24 11:37:55;;;;;;;;;;;13.00;81.70;;;;;;4318393;33;43569;-83
2022/03/24 11:40:26;;;;;;;;;;;13.00;80.60;;;;;;4317435;33;43012;-83
2022/03/24 11:42:53;;;;;;;;;;;13.00;79.10;;;;;;4317936;33;45185;-83
2022/03/24 11:45:40;;;;;;;;;;;13.00;79.20;;;;;;4317765;33;43419;-83
2022/03/24 11:48:07;;;;;;;;;;;13.10;80.10;;;;;;4317379;33;42882;-83
2022/03/24 11:50:47;;;;;;;;;;;13.10;80.50;;;;;;4330472;33;43007;-83
2022/03/24 11:53:35;;;;;;;;;;;13.10;80.60;;;;;;4317496;33;42879;-83
2022/03/24 11:56:02;;;;;;;;;;;13.10;80.60;;;;;;4331187;33;45840;-83
2022/03/24 11:58:30;;;;;;;;;;;13.20;80.90;;;;;;4317365;33;43640;-83
2022/03/24 12:01:17;;;;;;;;;;;13.20;80.20;;;;;;4330718;33;44975;-83
2022/03/24 12:03:46;;;;;;;;;;;13.20;80.60;;;;;;4330128;33;44281;-83
2022/03/24 12:06:14;;;;;;;;;;;13.30;80.20;;;;;;4317641;33;43858;-83
2022/03/24 12:08:44;;;;;;;;;;;13.30;79.80;;;;;;4317227;33;43454;-84
2022/03/24 12:11:30;;;;;;;;;;;13.30;80.10;;;;;;4330819;33;46233;-83
2022/03/24 12:13:58;;;;;;;;;;;13.30;77.90;;;;;;4317812;33;44180;-83
2022/03/24 12:16:26;;;;;;;;;;;13.40;78.20;;;;;;4317535;33;42870;-84
2022/03/24 12:18:53;;;;;;;;;;;13.40;79.20;;;;;;4316991;33;43297;-83
2022/03/24 12:21:21;;;;;;;;;;;13.50;78.30;;;;;;4330591;33;43919;-83
2022/03/24 12:24:07;;;;;;;;;;;13.50;78.00;;;;;;4330233;33;44115;-83
2022/03/24 12:26:47;;;;;;;;;;;13.50;78.80;;;;;;4317348;33;43537;-83
2022/03/24 12:29:15;;;;;;;;;;;13.60;78.90;;;;;;4317366;33;44426;-83
2022/03/24 12:31:55;;;;;;;;;;;13.60;78.60;;;;;;4330258;33;42343;-83
2022/03/24 12:34:27;;;;;;;;;;;13.60;78.40;;;;;;4316993;33;43483;-83
2022/03/24 12:36:55;;;;;;;;;;;13.60;78.60;;;;;;4330679;33;44113;-83
2022/03/24 12:39:30;;;;;;;;;;;13.70;78.10;;;;;;4316897;33;44047;-83
2022/03/24 12:42:05;;;;;;;;;;;13.70;78.60;;;;;;4316792;33;42229;-83
2022/03/24 12:44:50;;;;;;;;;;;13.80;78.80;;;;;;4330103;33;43501;-84
2022/03/24 12:47:38;;;;;;;;;;;13.80;79.20;;;;;;4330443;33;46035;-84
2022/03/24 12:50:31;;;;;;;;;;;13.90;78.60;;;;;;4317226;33;43741;-84
2022/03/24 12:52:58;;;;;;;;;;;13.80;78.60;;;;;;4316732;33;44127;-84
2022/03/24 12:55:27;;;;;;;;;;;13.90;78.10;;;;;;4317249;33;42994;-83
2022/03/24 12:57:54;;;;;;;;;;;13.90;76.50;;;;;;4329966;33;42285;-83
2022/03/24 13:00:24;;;;;;;;;;;14.00;75.70;;;;;;4317063;33;43852;-84
2022/03/24 13:02:51;;;;;;;;;;;14.00;74.30;;;;;;4332705;33;44202;-83
2022/03/24 13:05:25;;;;;;;;;;;14.10;76.10;;;;;;4332763;33;44209;-83
2022/03/24 13:07:53;;;;;;;;;;;14.10;75.80;;;;;;4332847;33;43486;-83
2022/03/24 13:10:24;;;;;;;;;;;14.10;74.70;;;;;;4319894;33;42999;-83
2022/03/24 13:12:56;;;;;;;;;;;14.20;76.10;;;;;;4333082;33;44147;-84
2022/03/24 13:15:25;;;;;;;;;;;14.20;76.30;;;;;;4333312;33;45029;-84
2022/03/24 13:17:57;;;;;;;;;;;14.30;76.20;;;;;;4319683;33;42537;-84
2022/03/24 13:20:25;;;;;;;;;;;14.30;76.30;;;;;;4319771;33;42990;-83
2022/03/24 13:22:53;;;;;;;;;;;14.30;75.20;;;;;;4333615;33;19998;-83
2022/03/24 13:25:26;;;;;;;;;;;14.40;74.60;;;;;;4320021;33;44235;-83
2022/03/24 13:27:54;;;;;;;;;;;14.40;74.90;;;;;;4319337;33;43072;-83
2022/03/24 13:30:26;;;;;;;;;;;14.40;74.30;;;;;;4319225;33;43491;-83
2022/03/24 13:32:56;;;;;;;;;;;14.50;73.80;;;;;;4332731;33;44756;-83
2022/03/24 13:35:25;;;;;;;;;;;14.60;73.60;;;;;;4319938;33;44215;-83
2022/03/24 13:37:56;;;;;;;;;;;14.60;73.20;;;;;;4332747;33;43250;-83
2022/03/24 13:40:25;;;;;;;;;;;14.60;74.70;;;;;;4332737;33;43784;-84
2022/03/24 13:42:52;;;;;;;;;;;14.70;75.10;;;;;;4332274;33;44044;-84
2022/03/24 13:45:20;;;;;;;;;;;14.70;74.90;;;;;;4319568;33;44650;-83
2022/03/24 13:47:51;;;;;;;;;;;14.70;74.20;;;;;;4319450;33;44217;-83
2022/03/24 13:50:19;;;;;;;;;;;14.70;75.00;;;;;;4319391;33;42956;-83
2022/03/24 13:52:50;;;;;;;;;;;14.80;74.60;;;;;;4332100;33;43392;-83
2022/03/24 13:55:26;;;;;;;;;;;14.80;74.10;;;;;;4332524;33;44215;-83
2022/03/24 13:57:59;;;;;;;;;;;14.80;73.70;;;;;;4319182;33;42585;-83
2022/03/24 14:00:42;;;;;;;;;;;14.80;74.90;;;;;;4331961;33;42482;-83
2022/03/24 14:03:20;;;;;;;;;;;14.90;75.00;;;;;;4318824;33;42970;-83
2022/03/24 14:05:47;;;;;;;;;;;14.90;74.90;;;;;;4318786;33;43474;-83
2022/03/24 14:08:27;;;;;;;;;;;15.00;73.20;;;;;;4332118;33;44206;-84
2022/03/24 14:10:58;;;;;;;;;;;15.00;73.80;;;;;;4319296;33;45578;-85
2022/03/24 14:13:26;;;;;;;;;;;15.10;75.00;;;;;;4319230;33;43966;-83
2022/03/24 14:16:28;;;;;;;;;;;15.10;74.30;;;;;;4319095;33;43393;-83
2022/03/24 14:19:22;;;;;;;;;;;15.10;74.70;;;;;;4295770;33;45051;-83
2022/03/24 14:21:53;;;;;;;;;;;15.20;75.50;;;;;;4318586;33;45029;-83
2022/03/24 14:24:28;;;;;;;;;;;15.20;74.80;;;;;;4332462;33;20002;-83
2022/03/24 14:26:56;;;;;;;;;;;15.20;74.00;;;;;;4318944;33;44720;-84